Time;durP1;ratioP1;P1;durP2;ratioP2;P2;SDS_P1;SDS_P2;PMS_P1;PMS_P2;Temp;Humidity;BMP_temperature;BMP_pressure;BME280_temperature;BME280_humidity;BME280_pressure;Samples;Min_cycle;Max_cycle;Signal;HPM_P1;HPM_P2
2023/03/10 00:00:14;;;;;;;;;;;;;;;0.82;100.00;160786.97;5053142;28;19967;-63
2023/03/10 00:02:45;;;;;;;;;;;;;;;0.82;100.00;160786.97;5053810;28;19920;-63
2023/03/10 00:05:11;;;;;;;;;;;;;;;0.83;100.00;160789.66;5053249;28;20299;-63
2023/03/10 00:07:36;;;;;;;;;;;;;;;0.82;100.00;160786.97;5054031;28;19913;-62
2023/03/10 00:10:01;;;;;;;;;;;;;;;0.84;100.00;160790.97;5052542;28;19916;-61
2023/03/10 00:12:26;;;;;;;;;;;;;;;0.82;100.00;160785.66;5054342;28;19983;-62
2023/03/10 00:14:52;;;;;;;;;;;;;;;0.83;100.00;160789.66;5052807;28;19920;-61
2023/03/10 00:17:17;;;;;;;;;;;;;;;0.81;100.00;160782.97;5053905;28;19915;-61
2023/03/10 00:19:42;;;;;;;;;;;;;;;0.82;100.00;160786.97;5052484;28;19908;-61
2023/03/10 00:22:07;;;;;;;;;;;;;;;0.88;100.00;160803.06;5054046;28;19954;-61
2023/03/10 00:24:32;;;;;;;;;;;;;;;0.86;100.00;160797.69;5052060;28;19916;-62
2023/03/10 00:26:57;;;;;;;;;;;;;;;0.84;100.00;160792.34;5054030;28;20393;-61
2023/03/10 00:29:23;;;;;;;;;;;;;;;0.84;100.00;160790.97;5053797;28;20018;-61
2023/03/10 00:31:48;;;;;;;;;;;;;;;0.82;100.00;160786.97;5051929;28;19995;-61
2023/03/10 00:34:13;;;;;;;;;;;;;;;0.81;100.00;160784.28;5053909;28;19934;-61
2023/03/10 00:36:39;;;;;;;;;;;;;;;0.85;100.00;160793.69;5047113;28;20001;-61
2023/03/10 00:39:05;;;;;;;;;;;;;;;0.83;100.00;160789.66;5053485;28;20007;-61
2023/03/10 00:41:32;;;;;;;;;;;;;;;0.82;100.00;160786.97;5052065;28;19924;-61
2023/03/10 00:43:57;;;;;;;;;;;;;;;0.84;100.00;160792.34;5053602;28;20283;-61
2023/03/10 00:46:23;;;;;;;;;;;;;;;0.79;100.00;160778.91;5051933;28;19919;-61
2023/03/10 00:48:49;;;;;;;;;;;;;;;0.75;100.00;160769.53;5052241;28;19915;-62
2023/03/10 00:51:14;;;;;;;;;;;;;;;0.75;100.00;160768.22;5052026;28;19924;-61
2023/03/10 00:53:40;;;;;;;;;;;;;;;0.78;100.00;160776.28;5053029;28;20283;-61
2023/03/10 00:56:13;;;;;;;;;;;;;;;0.78;100.00;160776.28;5051201;28;19962;-60
2023/03/10 00:58:39;;;;;;;;;;;;;;;0.81;100.00;160784.28;5053188;28;20000;-60
2023/03/10 01:01:09;;;;;;;;;;;;;;;0.81;100.00;160784.28;5051688;28;20000;-60
2023/03/10 01:03:34;;;;;;;;;;;;;;;0.85;100.00;160793.69;5053281;28;19924;-60
2023/03/10 01:05:59;;;;;;;;;;;;;;;0.84;100.00;160790.97;5051846;28;19912;-61
2023/03/10 01:08:25;;;;;;;;;;;;;;;0.80;100.00;160781.59;5052936;28;19952;-61
2023/03/10 01:10:50;;;;;;;;;;;;;;;0.83;100.00;160789.66;5051675;28;19962;-60
2023/03/10 01:13:16;;;;;;;;;;;;;;;0.86;100.00;160797.69;5053115;28;19917;-60
2023/03/10 01:15:43;;;;;;;;;;;;;;;0.84;100.00;160792.34;5051112;28;20364;-61
2023/03/10 01:18:08;;;;;;;;;;;;;;;0.82;100.00;160785.66;5053166;28;19908;-61
2023/03/10 01:20:34;;;;;;;;;;;;;;;0.87;100.00;160799.06;5051823;28;19939;-61
2023/03/10 01:22:59;;;;;;;;;;;;;;;0.86;100.00;160797.69;5052702;28;19908;-61
2023/03/10 01:25:25;;;;;;;;;;;;;;;0.80;100.00;160781.59;5051532;28;20003;-61
2023/03/10 01:27:50;;;;;;;;;;;;;;;0.75;100.00;160768.22;5052784;28;19959;-61
2023/03/10 01:30:15;;;;;;;;;;;;;;;0.78;100.00;160776.28;5050972;28;19971;-61
2023/03/10 01:32:41;;;;;;;;;;;;;;;0.76;100.00;160770.91;5052611;28;19908;-61
2023/03/10 01:35:06;;;;;;;;;;;;;;;0.82;100.00;160785.66;5051613;28;19913;-60
2023/03/10 01:37:32;;;;;;;;;;;;;;;0.84;100.00;160790.97;5052615;28;20368;-61
2023/03/10 01:39:57;;;;;;;;;;;;;;;0.80;100.00;160781.59;5050928;28;19971;-61
2023/03/10 01:42:22;;;;;;;;;;;;;;;0.82;100.00;160786.97;5052709;28;19916;-60
2023/03/10 01:45:06;;;;;;;;;;;;;;;0.85;100.00;160795.03;5049936;28;19924;-60
2023/03/10 01:47:31;;;;;;;;;;;;;;;0.86;100.00;160797.69;5051254;28;20354;-60
2023/03/10 01:49:57;;;;;;;;;;;;;;;0.88;100.00;160803.06;5050750;28;19917;-59
2023/03/10 01:52:23;;;;;;;;;;;;;;;0.92;100.00;160813.81;5051822;28;19971;-60
2023/03/10 01:54:52;;;;;;;;;;;;;;;0.92;100.00;160813.81;5050901;28;19913;-60
2023/03/10 01:57:19;;;;;;;;;;;;;;;0.95;100.00;160821.84;5052680;28;20376;-60
2023/03/10 01:59:45;;;;;;;;;;;;;;;0.93;100.00;160816.47;5050323;28;19916;-60
2023/03/10 02:02:10;;;;;;;;;;;;;;;0.91;100.00;160811.13;5052309;28;20047;-60
2023/03/10 02:04:40;;;;;;;;;;;;;;;0.92;100.00;160812.44;5050456;28;20284;-61
2023/03/10 02:07:05;;;;;;;;;;;;;;;0.95;100.00;160820.50;5051720;28;19905;-60
2023/03/10 02:09:32;;;;;;;;;;;;;;;0.97;100.00;160825.84;5051048;28;19919;-60
2023/03/10 02:11:57;;;;;;;;;;;;;;;0.98;100.00;160827.22;5051868;28;19916;-61
2023/03/10 02:14:23;;;;;;;;;;;;;;;0.94;100.00;160819.16;5051718;28;19909;-61
2023/03/10 02:16:48;;;;;;;;;;;;;;;0.94;100.00;160819.16;5050365;28;19917;-61
2023/03/10 02:19:25;;;;;;;;;;;;;;;0.95;100.00;160821.84;5051909;28;19916;-61
2023/03/10 02:21:59;;;;;;;;;;;;;;;0.94;100.00;160819.16;5049691;28;20341;-61
2023/03/10 02:24:31;;;;;;;;;;;;;;;0.90;100.00;160807.06;5051900;28;19916;-60
2023/03/10 02:27:16;;;;;;;;;;;;;;;0.93;100.00;160816.47;5050169;28;20009;-61
2023/03/10 02:30:02;;;;;;;;;;;;;;;0.92;100.00;160813.81;5039218;28;19917;-61
2023/03/10 02:32:29;;;;;;;;;;;;;;;0.90;100.00;160807.06;5040715;28;20469;-60
2023/03/10 02:34:54;;;;;;;;;;;;;;;0.92;100.00;160813.81;5049843;28;19923;-60
2023/03/10 02:37:30;;;;;;;;;;;;;;;0.92;100.00;160813.81;5046204;28;19908;-61
2023/03/10 02:39:56;;;;;;;;;;;;;;;0.90;100.00;160808.44;5050102;28;19912;-62
2023/03/10 02:42:22;;;;;;;;;;;;;;;0.90;100.00;160808.44;5051454;28;20272;-62
2023/03/10 02:44:48;;;;;;;;;;;;;;;0.89;100.00;160804.44;5049571;28;19953;-61
2023/03/10 02:47:13;;;;;;;;;;;;;;;0.91;100.00;160811.13;5051450;28;20097;-62
2023/03/10 02:49:40;;;;;;;;;;;;;;;0.94;100.00;160819.16;5030161;28;19920;-60
2023/03/10 02:52:07;;;;;;;;;;;;;;;0.94;100.00;160819.16;5031249;28;19947;-61
2023/03/10 02:54:32;;;;;;;;;;;;;;;0.94;100.00;160819.16;5042975;28;19958;-61
2023/03/10 02:56:57;;;;;;;;;;;;;;;0.95;100.00;160821.84;5051162;28;19905;-61
2023/03/10 02:59:23;;;;;;;;;;;;;;;0.98;100.00;160828.53;5051191;28;19909;-61
2023/03/10 03:01:48;;;;;;;;;;;;;;;1.04;100.00;160844.63;5049597;28;19920;-61
2023/03/10 03:04:13;;;;;;;;;;;;;;;0.96;100.00;160823.19;5051215;28;19970;-61
2023/03/10 03:06:39;;;;;;;;;;;;;;;0.90;100.00;160807.06;5049261;28;19912;-61
2023/03/10 03:09:05;;;;;;;;;;;;;;;0.97;100.00;160824.53;5051448;28;19917;-61
2023/03/10 03:11:30;;;;;;;;;;;;;;;0.90;100.00;160807.06;5049858;28;19928;-61
2023/03/10 03:13:55;;;;;;;;;;;;;;;0.90;100.00;160808.44;5050431;28;19924;-61
2023/03/10 03:16:20;;;;;;;;;;;;;;;0.95;100.00;160821.84;5049482;28;19991;-62
2023/03/10 03:18:45;;;;;;;;;;;;;;;0.90;100.00;160808.44;5052028;28;19908;-61
2023/03/10 03:21:14;;;;;;;;;;;;;;;0.93;100.00;160816.47;5053627;28;19917;-61
2023/03/10 03:23:40;;;;;;;;;;;;;;;0.95;100.00;160820.50;5054883;28;20371;-61
2023/03/10 03:26:12;;;;;;;;;;;;;;;0.99;100.00;160829.91;5053653;28;19966;-62
2023/03/10 03:28:37;;;;;;;;;;;;;;;0.98;100.00;160827.22;5054511;28;20338;-61
2023/03/10 03:31:03;;;;;;;;;;;;;;;0.96;100.00;160823.19;5053580;28;19978;-61
2023/03/10 03:33:28;;;;;;;;;;;;;;;0.93;100.00;160816.47;5054667;28;20350;-62
2023/03/10 03:35:53;;;;;;;;;;;;;;;0.98;100.00;160828.53;5052931;28;20008;-61
2023/03/10 03:38:18;;;;;;;;;;;;;;;0.99;100.00;160829.91;5054942;28;19909;-61
2023/03/10 03:40:44;;;;;;;;;;;;;;;0.98;100.00;160827.22;5053092;28;19921;-61
2023/03/10 03:43:10;;;;;;;;;;;;;;;0.95;100.00;160821.84;5054629;28;19905;-61
2023/03/10 03:45:36;;;;;;;;;;;;;;;0.92;100.00;160813.81;5053050;28;19988;-62
2023/03/10 03:48:01;;;;;;;;;;;;;;;0.92;100.00;160812.44;5054935;28;19983;-62
2023/03/10 03:50:26;;;;;;;;;;;;;;;0.94;100.00;160819.16;5053058;28;19924;-62
2023/03/10 03:52:52;;;;;;;;;;;;;;;0.94;100.00;160819.16;5054207;28;19913;-62
2023/03/10 03:55:17;;;;;;;;;;;;;;;0.96;100.00;160823.19;5053398;28;19923;-61
2023/03/10 03:57:44;;;;;;;;;;;;;;;0.98;100.00;160828.53;5054499;28;19928;-61
2023/03/10 04:00:12;;;;;;;;;;;;;;;0.99;100.00;160829.91;5053292;28;19965;-61
2023/03/10 04:02:37;;;;;;;;;;;;;;;1.02;100.00;160837.91;5054059;28;19909;-62
2023/03/10 04:05:03;;;;;;;;;;;;;;;0.97;100.00;160825.84;5053167;28;19919;-61
2023/03/10 04:07:29;;;;;;;;;;;;;;;0.94;100.00;160819.16;5054262;28;20019;-61
2023/03/10 04:09:54;;;;;;;;;;;;;;;0.98;100.00;160827.22;5052778;28;20002;-62
2023/03/10 04:12:19;;;;;;;;;;;;;;;0.97;100.00;160824.53;5054141;28;19913;-62
2023/03/10 04:14:44;;;;;;;;;;;;;;;0.97;100.00;160824.53;5052351;28;20364;-62
2023/03/10 04:17:09;;;;;;;;;;;;;;;0.95;100.00;160820.50;5054317;28;19909;-62
2023/03/10 04:19:34;;;;;;;;;;;;;;;0.95;100.00;160821.84;5052640;28;19970;-62
2023/03/10 04:22:00;;;;;;;;;;;;;;;0.95;100.00;160820.50;5053832;28;19951;-61
2023/03/10 04:24:25;;;;;;;;;;;;;;;0.91;100.00;160811.13;5054172;28;19909;-61
2023/03/10 04:26:50;;;;;;;;;;;;;;;0.95;100.00;160821.84;5052287;28;19999;-60
2023/03/10 04:29:15;;;;;;;;;;;;;;;0.98;100.00;160827.22;5053595;28;19908;-60
2023/03/10 04:31:41;;;;;;;;;;;;;;;0.95;100.00;160821.84;5050736;28;20403;-61
2023/03/10 04:34:06;;;;;;;;;;;;;;;0.95;100.00;160821.84;5053990;28;19916;-61
2023/03/10 04:36:31;;;;;;;;;;;;;;;0.95;100.00;160820.50;5052080;28;20007;-61
2023/03/10 04:38:56;;;;;;;;;;;;;;;0.95;100.00;160821.84;5053860;28;19962;-61
2023/03/10 04:41:22;;;;;;;;;;;;;;;0.93;100.00;160816.47;5052170;28;19921;-61
2023/03/10 04:43:47;;;;;;;;;;;;;;;0.90;100.00;160808.44;5053411;28;20718;-61
2023/03/10 04:46:12;;;;;;;;;;;;;;;0.86;100.00;160797.69;5052001;28;19913;-61
2023/03/10 04:48:38;;;;;;;;;;;;;;;0.91;100.00;160811.13;5053566;28;20287;-61
2023/03/10 04:51:04;;;;;;;;;;;;;;;0.94;100.00;160819.16;5051681;28;19952;-61
2023/03/10 04:53:31;;;;;;;;;;;;;;;0.97;100.00;160824.53;5053736;28;19915;-61
2023/03/10 04:55:56;;;;;;;;;;;;;;;0.97;100.00;160824.53;5052134;28;19961;-61
2023/03/10 04:58:21;;;;;;;;;;;;;;;0.93;100.00;160816.47;5053252;28;20258;-61
2023/03/10 05:00:47;;;;;;;;;;;;;;;0.92;100.00;160813.81;5051805;28;19919;-60
2023/03/10 05:03:12;;;;;;;;;;;;;;;0.95;100.00;160821.84;5053406;28;19955;-61
2023/03/10 05:05:38;;;;;;;;;;;;;;;0.94;100.00;160819.16;5051364;28;20372;-61
2023/03/10 05:08:03;;;;;;;;;;;;;;;0.93;100.00;160815.13;5053697;28;19916;-61
2023/03/10 05:10:28;;;;;;;;;;;;;;;0.85;100.00;160795.03;5051870;28;20350;-62
2023/03/10 05:12:53;;;;;;;;;;;;;;;0.90;100.00;160808.44;5052726;28;19982;-64
2023/03/10 05:15:18;;;;;;;;;;;;;;;0.86;100.00;160797.69;5050467;28;19947;-63
2023/03/10 05:17:44;;;;;;;;;;;;;;;0.84;100.00;160790.97;5052213;28;19923;-62
2023/03/10 05:20:09;;;;;;;;;;;;;;;0.83;100.00;160789.66;5045077;28;19917;-62
2023/03/10 05:22:36;;;;;;;;;;;;;;;0.82;100.00;160786.97;5052084;28;20306;-63
2023/03/10 05:25:01;;;;;;;;;;;;;;;0.84;100.00;160792.34;5051079;28;20336;-62
2023/03/10 05:27:26;;;;;;;;;;;;;;;0.83;100.00;160789.66;5052653;28;19999;-63
2023/03/10 05:29:51;;;;;;;;;;;;;;;0.79;100.00;160780.28;5051246;28;19917;-63
2023/03/10 05:32:16;;;;;;;;;;;;;;;0.77;100.00;160773.59;5052574;28;19917;-63
2023/03/10 05:34:42;;;;;;;;;;;;;;;0.77;100.00;160774.91;5050670;28;19924;-62
2023/03/10 05:37:07;;;;;;;;;;;;;;;0.76;100.00;160770.91;5051755;28;19913;-64
2023/03/10 05:39:32;;;;;;;;;;;;;;;0.77;100.00;160774.91;5050803;28;19913;-63
2023/03/10 05:41:57;;;;;;;;;;;;;;;0.78;100.00;160776.28;5051678;28;20360;-63
2023/03/10 05:44:22;;;;;;;;;;;;;;;0.81;100.00;160784.28;5050707;28;20277;-62
2023/03/10 05:46:47;;;;;;;;;;;;;;;0.80;100.00;160781.59;5052284;28;19909;-62
2023/03/10 05:49:13;;;;;;;;;;;;;;;0.76;100.00;160770.91;5052013;28;19909;-63
2023/03/10 05:51:38;;;;;;;;;;;;;;;0.78;100.00;160776.28;5051079;28;20332;-61
2023/03/10 05:54:05;;;;;;;;;;;;;;;0.80;100.00;160781.59;5052438;28;20003;-61
2023/03/10 05:56:30;;;;;;;;;;;;;;;0.84;100.00;160790.97;5050624;28;19971;-61
2023/03/10 05:58:55;;;;;;;;;;;;;;;0.82;100.00;160786.97;5052127;28;20355;-61
2023/03/10 06:01:20;;;;;;;;;;;;;;;0.84;100.00;160792.34;5050990;28;20372;-60
2023/03/10 06:03:45;;;;;;;;;;;;;;;0.87;100.00;160799.06;5051573;28;19912;-61
2023/03/10 06:06:11;;;;;;;;;;;;;;;0.86;100.00;160797.69;5050695;28;19917;-61
2023/03/10 06:08:36;;;;;;;;;;;;;;;0.84;100.00;160792.34;5052598;28;19944;-60
2023/03/10 06:11:02;;;;;;;;;;;;;;;0.83;100.00;160789.66;5050516;28;19916;-61
2023/03/10 06:13:27;;;;;;;;;;;;;;;0.85;100.00;160793.69;5052061;28;19915;-61
2023/03/10 06:15:54;;;;;;;;;;;;;;;0.84;100.00;160792.34;5050413;28;19967;-60
2023/03/10 06:18:19;;;;;;;;;;;;;;;0.86;100.00;160797.69;5051890;28;20291;-61
2023/03/10 06:20:45;;;;;;;;;;;;;;;0.88;100.00;160803.06;5050171;28;19999;-61
2023/03/10 06:23:10;;;;;;;;;;;;;;;0.89;100.00;160804.44;5052002;28;19955;-61
2023/03/10 06:25:35;;;;;;;;;;;;;;;0.87;100.00;160799.06;5050003;28;20372;-61
2023/03/10 06:28:01;;;;;;;;;;;;;;;0.87;100.00;160800.38;5051334;28;19946;-61
2023/03/10 06:30:26;;;;;;;;;;;;;;;0.84;100.00;160792.34;5045121;28;20007;-61
2023/03/10 06:32:51;;;;;;;;;;;;;;;0.87;100.00;160800.38;5050828;28;20272;-61
2023/03/10 06:35:16;;;;;;;;;;;;;;;0.95;100.00;160821.84;5049940;28;20334;-60
2023/03/10 06:37:41;;;;;;;;;;;;;;;0.92;100.00;160813.81;5051499;28;19908;-61
2023/03/10 06:40:08;;;;;;;;;;;;;;;0.90;100.00;160808.44;5050267;28;19913;-61
2023/03/10 06:42:34;;;;;;;;;;;;;;;0.90;100.00;160807.06;5050675;28;19923;-60
2023/03/10 06:44:59;;;;;;;;;;;;;;;0.91;100.00;160809.75;5050221;28;20275;-61
2023/03/10 06:47:24;;;;;;;;;;;;;;;0.91;100.00;160809.75;5048934;28;20038;-61
2023/03/10 06:49:50;;;;;;;;;;;;;;;0.93;100.00;160816.47;5052090;28;19917;-61
2023/03/10 06:52:15;;;;;;;;;;;;;;;0.97;100.00;160824.53;5051158;28;19915;-61
2023/03/10 06:54:40;;;;;;;;;;;;;;;0.95;100.00;160821.84;5051376;28;19909;-60
2023/03/10 06:57:05;;;;;;;;;;;;;;;1.02;100.00;160839.28;5070970;28;19912;-60
2023/03/10 06:59:31;;;;;;;;;;;;;;;1.02;100.00;160837.91;5069253;28;19920;-60
2023/03/10 07:01:56;;;;;;;;;;;;;;;1.04;100.00;160843.28;5071076;28;20302;-61
2023/03/10 07:04:21;;;;;;;;;;;;;;;1.03;100.00;160840.59;5071072;28;20363;-60
2023/03/10 07:06:47;;;;;;;;;;;;;;;0.99;100.00;160831.22;5069262;28;20385;-60
2023/03/10 07:09:12;;;;;;;;;;;;;;;1.00;100.00;160833.91;5071333;28;19952;-60
2023/03/10 07:11:37;;;;;;;;;;;;;;;1.03;100.00;160840.59;5068971;28;19999;-61
2023/03/10 07:14:02;;;;;;;;;;;;;;;0.99;100.00;160829.91;5071229;28;19908;-61
2023/03/10 07:16:27;;;;;;;;;;;;;;;0.95;100.00;160821.84;5069788;28;19913;-61
2023/03/10 07:18:53;;;;;;;;;;;;;;;0.97;100.00;160824.53;5048893;28;19916;-60
2023/03/10 07:21:19;;;;;;;;;;;;;;;1.03;100.00;160840.59;5049531;28;19913;-60
2023/03/10 07:23:44;;;;;;;;;;;;;;;1.07;100.00;160851.38;5050787;28;20371;-61
2023/03/10 07:26:11;;;;;;;;;;;;;;;1.09;100.00;160858.06;5049003;28;19920;-61
2023/03/10 07:28:37;;;;;;;;;;;;;;;1.07;100.00;160851.38;5069337;28;19908;-60
2023/03/10 07:31:03;;;;;;;;;;;;;;;1.12;100.00;160864.75;5069455;28;20268;-61
2023/03/10 07:33:28;;;;;;;;;;;;;;;1.17;100.00;160878.16;5065102;28;19912;-61
2023/03/10 07:35:53;;;;;;;;;;;;;;;1.18;100.00;160880.84;5069274;28;20426;-60
2023/03/10 07:38:19;;;;;;;;;;;;;;;1.14;100.00;160870.13;5070470;28;20075;-60
2023/03/10 07:40:44;;;;;;;;;;;;;;;1.06;100.00;160850.00;5066879;28;20317;-60
2023/03/10 07:43:09;;;;;;;;;;;;;;;0.97;100.00;160825.84;5070017;28;20004;-60
2023/03/10 07:45:36;;;;;;;;;;;;;;;1.03;100.00;160840.59;5068094;28;19916;-60
2023/03/10 07:48:01;;;;;;;;;;;;;;;1.00;100.00;160833.91;5070498;28;19912;-60
2023/03/10 07:50:26;;;;;;;;;;;;;;;1.12;100.00;160864.75;5069530;28;19962;-60
2023/03/10 07:52:52;;;;;;;;;;;;;;;1.27;100.00;160903.63;5070366;28;19908;-60
2023/03/10 07:55:17;;;;;;;;;;;;;;;1.40;100.00;160937.19;5069259;28;19912;-60
2023/03/10 07:57:42;;;;;;;;;;;;;;;1.50;100.00;160964.03;5070699;28;19908;-60
2023/03/10 08:00:08;;;;;;;;;;;;;;;1.54;100.00;160974.75;5069507;28;19912;-60
2023/03/10 08:02:33;;;;;;;;;;;;;;;1.55;100.00;160977.44;5052257;28;19913;-60
2023/03/10 08:04:58;;;;;;;;;;;;;;;1.51;100.00;160966.72;5052358;28;19912;-60
2023/03/10 08:07:26;;;;;;;;;;;;;;;1.56;100.00;160980.13;5074599;28;19913;-60
2023/03/10 08:09:52;;;;;;;;;;;;;;;1.51;100.00;160965.34;5072340;28;20268;-60
2023/03/10 08:12:18;;;;;;;;;;;;;;;1.58;100.00;160985.50;5074291;28;19908;-60
2023/03/10 08:14:43;;;;;;;;;;;;;;;1.57;100.00;160981.44;5072608;28;20005;-60
2023/03/10 08:17:08;;;;;;;;;;;;;;;1.64;100.00;160998.91;5074037;28;19915;-61
2023/03/10 08:19:33;;;;;;;;;;;;;;;1.75;100.00;161028.38;5072582;28;20356;-60
2023/03/10 08:22:00;;;;;;;;;;;;;;;1.87;100.00;161060.63;5074049;28;19902;-61
2023/03/10 08:24:26;;;;;;;;;;;;;;;1.85;100.00;161055.25;5072286;28;19916;-60
2023/03/10 08:26:51;;;;;;;;;;;;;;;1.87;100.00;161059.25;5073800;28;19962;-60
2023/03/10 08:29:16;;;;;;;;;;;;;;;1.83;100.00;161049.88;5074092;28;20286;-61
2023/03/10 08:31:41;;;;;;;;;;;;;;;1.94;100.00;161076.72;5071844;28;19922;-60
2023/03/10 08:34:07;;;;;;;;;;;;;;;1.92;100.00;161072.72;5065461;28;19966;-60
2023/03/10 08:36:32;;;;;;;;;;;;;;;1.90;100.00;161068.66;5075033;28;19913;-60
2023/03/10 08:38:59;;;;;;;;;;;;;;;1.87;100.00;161060.63;5073508;28;19908;-62
2023/03/10 08:41:32;;;;;;;;;;;;;;;1.87;100.00;161060.63;5070941;28;19956;-61
2023/03/10 08:43:58;;;;;;;;;;;;;;;1.82;100.00;161045.84;5073673;28;19987;-61
2023/03/10 08:46:24;;;;;;;;;;;;;;;1.84;100.00;161052.56;5071891;28;19919;-61
2023/03/10 08:48:50;;;;;;;;;;;;;;;1.83;100.00;161049.88;5073488;28;20010;-60
2023/03/10 08:51:15;;;;;;;;;;;;;;;1.90;100.00;161067.34;5072173;28;19921;-61
2023/03/10 08:53:40;;;;;;;;;;;;;;;1.99;100.00;161091.50;5073384;28;19915;-61
2023/03/10 08:56:06;;;;;;;;;;;;;;;1.94;100.00;161076.72;5069789;28;19916;-61
2023/03/10 08:58:31;;;;;;;;;;;;;;;1.90;100.00;161068.66;5074217;28;19919;-61
2023/03/10 09:00:57;;;;;;;;;;;;;;;1.93;100.00;161074.03;5071837;28;19920;-61
2023/03/10 09:03:22;;;;;;;;;;;;;;;1.96;100.00;161082.09;5072931;28;19909;-61
2023/03/10 09:05:47;;;;;;;;;;;;;;;1.88;100.00;161063.31;5071585;28;20000;-61
2023/03/10 09:08:13;;;;;;;;;;;;;;;1.92;100.00;161071.34;5073322;28;19966;-61
2023/03/10 09:10:39;;;;;;;;;;;;;;;1.92;100.00;161071.34;5070860;28;19916;-61
2023/03/10 09:13:04;;;;;;;;;;;;;;;1.92;100.00;161071.34;5073445;28;19916;-61
2023/03/10 09:15:30;;;;;;;;;;;;;;;1.97;100.00;161086.13;5071636;28;19916;-61
2023/03/10 09:17:55;;;;;;;;;;;;;;;2.04;100.00;161104.91;5071818;28;20457;-61
2023/03/10 09:20:24;;;;;;;;;;;;;;;2.16;100.00;161135.78;5071584;28;19919;-61
2023/03/10 09:22:49;;;;;;;;;;;;;;;2.27;100.00;161162.66;5073059;28;20417;-61
2023/03/10 09:25:15;;;;;;;;;;;;;;;2.24;100.00;161154.56;5071178;28;19916;-60
2023/03/10 09:27:40;;;;;;;;;;;;;;;2.21;100.00;161149.19;5072741;28;20558;-61
2023/03/10 09:30:06;;;;;;;;;;;;;;;2.25;100.00;161158.59;5068746;28;19997;-61
2023/03/10 09:32:31;;;;;;;;;;;;;;;2.35;100.00;161184.06;5066826;28;19915;-61
2023/03/10 09:34:56;;;;;;;;;;;;;;;2.45;100.00;161210.94;5069157;28;19919;-61
2023/03/10 09:37:21;;;;;;;;;;;;;;;2.51;100.00;161227.03;5072568;28;20291;-61
2023/03/10 09:39:46;;;;;;;;;;;;;;;2.57;100.00;161240.50;5070339;28;19955;-61
2023/03/10 09:42:33;;;;;;;;;;;;;;;2.44;100.00;161206.94;5072257;28;20007;-61
2023/03/10 09:45:16;;;;;;;;;;;;;;;2.31;100.00;161173.34;5070617;28;19928;-61
2023/03/10 09:47:47;;;;;;;;;;;;;;;2.41;100.00;161200.22;5071907;28;19908;-61
2023/03/10 09:50:25;;;;;;;;;;;;;;;2.46;100.00;161213.63;5070719;28;19916;-61
2023/03/10 09:53:00;;;;;;;;;;;;;;;2.43;100.00;161205.56;5071400;28;19919;-61
2023/03/10 09:55:45;;;;;;;;;;;;;;;2.37;100.00;161189.47;5070533;28;19936;-61
2023/03/10 09:58:31;;;;;;;;;;;;;;;2.24;100.00;161154.56;5071342;28;19966;-61
2023/03/10 10:00:57;;;;;;;;;;;;;;;2.12;100.00;161125.06;5069442;28;19962;-60
2023/03/10 10:03:27;;;;;;;;;;;;;;;2.14;100.00;161130.41;5071478;28;20435;-60
2023/03/10 10:05:54;;;;;;;;;;;;;;;2.09;100.00;161115.63;5069794;28;20011;-60
2023/03/10 10:08:23;;;;;;;;;;;;;;;2.09;100.00;161117.00;5071433;28;19908;-60
2023/03/10 10:10:51;;;;;;;;;;;;;;;2.16;100.00;161135.78;5069898;28;19916;-60
2023/03/10 10:13:17;;;;;;;;;;;;;;;2.06;100.00;161108.91;5069951;28;20003;-60
2023/03/10 10:15:45;;;;;;;;;;;;;;;2.02;100.00;161098.19;5072358;28;20000;-61
2023/03/10 10:18:18;;;;;;;;;;;;;;;2.00;100.00;161092.81;5072053;28;19908;-60
2023/03/10 10:20:43;;;;;;;;;;;;;;;2.07;100.00;161111.59;5070107;28;20251;-60
2023/03/10 10:23:33;;;;;;;;;;;;;;;2.10;100.00;161119.69;5070867;28;19919;-60
2023/03/10 10:26:00;;;;;;;;;;;;;;;2.26;100.00;161159.94;5064613;28;19920;-60
2023/03/10 10:28:31;;;;;;;;;;;;;;;2.35;100.00;161184.06;5071219;28;19912;-60
2023/03/10 10:31:10;;;;;;;;;;;;;;;2.38;100.00;161192.16;5065353;28;19967;-61
2023/03/10 10:33:52;;;;;;;;;;;;;;;2.50;100.00;161224.34;5063688;28;19928;-60
2023/03/10 10:36:18;;;;;;;;;;;;;;;2.51;100.00;161227.03;5063410;28;19917;-60
2023/03/10 10:38:50;;;;;;;;;;;;;;;2.58;100.00;161243.16;5071122;28;20298;-60
2023/03/10 10:41:18;;;;;;;;;;;;;;;2.61;100.00;161252.53;5065986;28;19920;-60
2023/03/10 10:43:44;;;;;;;;;;;;;;;2.71;100.00;161278.09;5051409;28;19909;-60
2023/03/10 10:46:11;;;;;;;;;;;;;;;2.79;100.00;161298.22;5065778;28;19963;-60
2023/03/10 10:48:44;;;;;;;;;;;;;;;2.80;100.00;161300.91;5071235;28;19909;-60
2023/03/10 10:51:27;;;;;;;;;;;;;;;2.86;100.00;161317.00;5069686;28;19929;-60
2023/03/10 10:53:53;;;;;;;;;;;;;;;2.86;100.00;161317.00;5070929;28;20026;-60
2023/03/10 10:56:18;;;;;;;;;;;;;;;3.01;100.00;161355.97;5069211;28;19924;-60
2023/03/10 10:58:58;;;;;;;;;;;;;;;3.14;100.00;161389.50;5071431;28;20020;-60
2023/03/10 11:01:24;;;;;;;;;;;;;;;3.17;100.00;161397.59;5069531;28;19995;-60
2023/03/10 11:04:02;;;;;;;;;;;;;;;3.20;100.00;161404.31;5071135;28;19943;-60
2023/03/10 11:06:28;;;;;;;;;;;;;;;3.09;100.00;161376.09;5069138;28;19923;-60
2023/03/10 11:09:03;;;;;;;;;;;;;;;3.03;100.00;161361.31;5050660;28;20393;-60
2023/03/10 11:11:47;;;;;;;;;;;;;;;3.02;100.00;161358.63;5062300;28;20446;-60
2023/03/10 11:14:22;;;;;;;;;;;;;;;3.03;100.00;161360.00;5071280;28;19915;-60
2023/03/10 11:16:56;;;;;;;;;;;;;;;2.99;100.00;161350.59;5069320;28;19966;-60
2023/03/10 11:19:40;;;;;;;;;;;;;;;3.00;100.00;161354.59;5071058;28;19960;-60
2023/03/10 11:22:13;;;;;;;;;;;;;;;3.24;100.00;161415.09;5069511;28;19913;-60
2023/03/10 11:24:43;;;;;;;;;;;;;;;3.30;100.00;161431.19;5069413;28;19908;-59
2023/03/10 11:27:14;;;;;;;;;;;;;;;3.26;100.00;161420.41;5070980;28;19951;-60
2023/03/10 11:29:49;;;;;;;;;;;;;;;3.30;100.00;161431.19;5068822;28;20000;-60
2023/03/10 11:32:28;;;;;;;;;;;;;;;3.22;100.00;161411.00;5071111;28;19919;-60
2023/03/10 11:34:54;;;;;;;;;;;;;;;3.14;100.00;161390.88;5068578;28;20018;-59
2023/03/10 11:37:28;;;;;;;;;;;;;;;3.27;100.00;161423.09;5069891;28;20012;-60
2023/03/10 11:40:14;;;;;;;;;;;;;;;3.32;100.00;161436.53;5070248;28;19924;-60
2023/03/10 11:42:42;;;;;;;;;;;;;;;3.35;100.00;161444.59;5074314;28;19920;-60
2023/03/10 11:45:26;;;;;;;;;;;;;;;3.29;100.00;161428.50;5073205;28;19912;-60
2023/03/10 11:47:51;;;;;;;;;;;;;;;3.42;100.00;161463.41;5053428;28;20311;-60
2023/03/10 11:50:36;;;;;;;;;;;;;;;3.40;100.00;161458.03;5073077;28;19916;-60
2023/03/10 11:53:05;;;;;;;;;;;;;;;3.48;100.00;161479.53;5074420;28;19908;-60
2023/03/10 11:55:30;;;;;;;;;;;;;;;3.53;100.00;161490.31;5072495;28;19927;-60
2023/03/10 11:57:58;;;;;;;;;;;;;;;3.51;100.00;161484.91;5073540;28;19916;-60
2023/03/10 12:00:27;;;;;;;;;;;;;;;3.65;100.00;161522.53;5072328;28;19912;-60
2023/03/10 12:03:02;;;;;;;;;;;;;;;3.80;100.00;161561.47;5074171;28;19908;-60
2023/03/10 12:05:39;;;;;;;;;;;;;;;3.96;100.00;161603.16;5072614;28;19916;-60
2023/03/10 12:08:05;;;;;;;;;;;;;;;3.96;100.00;161603.16;5072920;28;20393;-60
2023/03/10 12:10:34;;;;;;;;;;;;;;;3.86;100.00;161576.25;5071851;28;19928;-60
2023/03/10 12:13:00;;;;;;;;;;;;;;;3.62;100.00;161515.81;5069228;28;19919;-60
2023/03/10 12:15:34;;;;;;;;;;;;;;;3.39;100.00;161455.34;5071948;28;20363;-60
2023/03/10 12:18:01;;;;;;;;;;;;;;;3.48;100.00;161479.53;5073754;28;19918;-60
2023/03/10 12:20:28;;;;;;;;;;;;;;;3.37;100.00;161450.00;5072612;28;19916;-60
2023/03/10 12:22:54;;;;;;;;;;;;;;;3.25;100.00;161419.09;5073760;28;19912;-60
2023/03/10 12:25:28;;;;;;;;;;;;;;;3.26;100.00;161420.41;5072445;28;19916;-60
2023/03/10 12:28:12;;;;;;;;;;;;;;;3.10;100.00;161380.13;5074116;28;19959;-60
2023/03/10 12:30:47;;;;;;;;;;;;;;;2.93;100.00;161334.50;5071592;28;19920;-60
2023/03/10 12:33:36;;;;;;;;;;;;;;;2.82;100.00;161307.59;5074323;28;19971;-60
2023/03/10 12:36:01;;;;;;;;;;;;;;;2.81;100.00;161304.91;5074216;28;19978;-60